Flight Track Log - Related Links

Times and Time Zones

All times are in EDT time to prevent confusion due to time zone crossing. See the EGF3406 flight status page for this flight to view local times or setup timezone preferences in your user account.

Time Position Orientation Groundspeed Altitude Reporting Facility
EDT Latitude Longitude Course Direction KTS MPH feet Rate Location/Type
Thu 08:00:00 PM 35.1566 -94.5181 213° Southwest  Level FlightAware Approximate
Thu 08:00:20 PM 35.2050 -94.5144 223° Southwest 253 291 7,400  Level Memphis Center
Thu 08:01:00 PM 35.0992 -94.5705 224° Southwest  Level FlightAware Approximate
Thu 08:01:20 PM 35.1450 -94.5622 213° Southwest 259 298 9,700  Level Memphis Center
Thu 08:01:56 PM 35.1036 -94.6042 220° Southwest 276 318 11,200 1,938 Climbing Fort Worth Center
Thu 08:02:00 PM 35.0471 -94.6312 224° Southwest  Level FlightAware Approximate
Thu 08:02:56 PM 35.0361 -94.6622 215° Southwest 277 319 12,800  Level Fort Worth Center
Thu 08:03:00 PM 34.9903 -94.6777 223° Southwest  Level FlightAware Approximate
Thu 08:03:56 PM 34.9667 -94.7303 219° Southwest 306 352 14,200  Level Fort Worth Center
Thu 08:04:00 PM 34.9378 -94.7378 223° Southwest  Level FlightAware Approximate
Thu 08:04:56 PM 34.9056 -94.8008 223° Southwest 331 381 15,600  Level Fort Worth Center
Thu 08:05:00 PM 34.8853 -94.7978 223° Southwest  Level FlightAware Approximate
Thu 08:05:56 PM 34.8361 -94.8761 222° Southwest 336 387 17,000  Level Fort Worth Center
Thu 08:06:56 PM 34.7586 -94.9594 221° Southwest 336 387 18,800 1,600 Climbing Fort Worth Center
Thu 08:07:56 PM 34.6869 -95.0347 221° Southwest 336 387 20,200 1,400 Climbing Fort Worth Center
Thu 08:08:56 PM 34.6156 -95.1097 221° Southwest 336 387 21,600 1,250 Climbing Fort Worth Center
Thu 08:09:56 PM 34.5478 -95.1822 221° Southwest 349 402 22,700 700 Climbing Fort Worth Center
Thu 08:10:56 PM 34.4722 -95.2622 221° Southwest 360 414 23,000 500 Climbing Fort Worth Center
Thu 08:11:56 PM 34.3922 -95.3472 221° Southwest 373 429 23,700 500 Climbing Fort Worth Center
Thu 08:12:56 PM 34.3122 -95.4322 221° Southwest 385 443 24,000 150 Climbing Fort Worth Center
Thu 08:13:56 PM 34.2281 -95.5219 221° Southwest 392 451 24,000  Level Fort Worth Center
Thu 08:14:56 PM 34.1314 -95.6194 220° Southwest 411 473 24,000  Level Fort Worth Center
Thu 08:15:56 PM 34.0572 -95.6986 221° Southwest 411 473 24,000  Level Fort Worth Center
Thu 08:16:56 PM 33.9708 -95.7906 221° Southwest 411 473 24,000  Level Fort Worth Center
Thu 08:17:56 PM 33.8742 -95.8875 220° Southwest 417 480 24,000 -1,100 Level Fort Worth Center
Thu 08:18:56 PM 33.7894 -95.9764 221° Southwest 411 473 21,800 -2,250 Descending Fort Worth Center
Thu 08:19:56 PM 33.7092 -96.0600 221° Southwest 405 466 19,500 -2,550 Descending Fort Worth Center
Thu 08:20:56 PM 33.6286 -96.1436 221° Southwest 393 452 16,700 -2,550 Descending Fort Worth Center
Thu 08:21:56 PM 33.5561 -96.2194 221° Southwest 369 425 14,400 -2,400 Descending Fort Worth Center
Thu 08:22:56 PM 33.4819 -96.3053 224° Southwest 369 425 11,900 -1,700 Descending Fort Worth Center
Thu 08:23:56 PM 33.4158 -96.3831 224° Southwest 349 402 11,000 -750 Descending Fort Worth Center
Thu 08:24:56 PM 33.3619 -96.4483 225° Southwest 297 342 10,400 -750 Descending Fort Worth Center
Thu 08:25:56 PM 33.3333 -96.5183 244° Southwest 272 313 9,500 -950 Descending Fort Worth Center
Thu 08:26:56 PM 33.3044 -96.5958 246° West 261 300 8,500 -1,050 Descending Fort Worth Center
Thu 08:27:56 PM 33.2739 -96.6781 246° West 250 288 7,400 -950 Descending Fort Worth Center
Thu 08:28:56 PM 33.2492 -96.7453 246° West 250 288 6,600 -950 Descending Fort Worth Center
Thu 08:29:56 PM 33.2183 -96.8275 246° West 255 293 5,500 -800 Descending Fort Worth Center
Thu 08:30:56 PM 33.1894 -96.9044 246° West 250 288 5,000 -600 Descending Fort Worth Center
Thu 08:31:56 PM 33.1583 -96.9692 240° Southwest 239 275 4,300 -700 Descending Fort Worth Center

Login

Don't have an account? Register now (free) for customized features, flight alerts, and more!